sensor_id;sensor_type;location;lat;lon;timestamp;temperature;humidity
3226;DHT22;1625;49.884;8.666;2023-03-23T00:00:05;15.20;99.90
3226;DHT22;1625;49.884;8.666;2023-03-23T00:02:31;15.20;99.90
3226;DHT22;1625;49.884;8.666;2023-03-23T00:05:01;15.30;99.90
3226;DHT22;1625;49.884;8.666;2023-03-23T00:07:28;15.20;99.90
3226;DHT22;1625;49.884;8.666;2023-03-23T00:09:54;15.30;99.90
3226;DHT22;1625;49.884;8.666;2023-03-23T00:12:25;15.20;99.90
3226;DHT22;1625;49.884;8.666;2023-03-23T00:15:02;15.20;99.90
3226;DHT22;1625;49.884;8.666;2023-03-23T00:17:28;15.20;99.90
3226;DHT22;1625;49.884;8.666;2023-03-23T00:19:54;15.20;99.90
3226;DHT22;1625;49.884;8.666;2023-03-23T00:22:20;15.20;99.90
3226;DHT22;1625;49.884;8.666;2023-03-23T00:24:47;15.20;99.90
3226;DHT22;1625;49.884;8.666;2023-03-23T00:27:16;15.20;99.90
3226;DHT22;1625;49.884;8.666;2023-03-23T00:29:41;15.20;99.90
3226;DHT22;1625;49.884;8.666;2023-03-23T00:32:08;15.20;99.90
3226;DHT22;1625;49.884;8.666;2023-03-23T00:34:40;15.20;99.90
3226;DHT22;1625;49.884;8.666;2023-03-23T00:37:07;15.20;99.90
3226;DHT22;1625;49.884;8.666;2023-03-23T00:39:33;15.20;99.90
3226;DHT22;1625;49.884;8.666;2023-03-23T00:42:02;15.20;99.90
3226;DHT22;1625;49.884;8.666;2023-03-23T00:44:28;15.20;99.90
3226;DHT22;1625;49.884;8.666;2023-03-23T00:46:56;15.20;99.90
3226;DHT22;1625;49.884;8.666;2023-03-23T00:49:23;15.20;99.90
3226;DHT22;1625;49.884;8.666;2023-03-23T00:51:53;15.20;99.90
3226;DHT22;1625;49.884;8.666;2023-03-23T00:54:19;15.20;99.90
3226;DHT22;1625;49.884;8.666;2023-03-23T00:56:45;15.20;99.90
3226;DHT22;1625;49.884;8.666;2023-03-23T00:59:10;15.20;99.90
3226;DHT22;1625;49.884;8.666;2023-03-23T01:01:36;15.20;99.90
3226;DHT22;1625;49.884;8.666;2023-03-23T01:04:03;15.20;99.90
3226;DHT22;1625;49.884;8.666;2023-03-23T01:06:30;15.20;99.90
3226;DHT22;1625;49.884;8.666;2023-03-23T01:08:57;15.30;99.90
3226;DHT22;1625;49.884;8.666;2023-03-23T01:11:23;15.30;99.90
3226;DHT22;1625;49.884;8.666;2023-03-23T01:13:50;15.20;99.90
3226;DHT22;1625;49.884;8.666;2023-03-23T01:16:15;15.20;99.90
3226;DHT22;1625;49.884;8.666;2023-03-23T01:18:41;15.20;99.90
3226;DHT22;1625;49.884;8.666;2023-03-23T01:21:10;15.20;99.90
3226;DHT22;1625;49.884;8.666;2023-03-23T01:23:37;15.10;99.90
3226;DHT22;1625;49.884;8.666;2023-03-23T01:26:12;15.20;99.90
3226;DHT22;1625;49.884;8.666;2023-03-23T01:28:38;15.10;99.90
3226;DHT22;1625;49.884;8.666;2023-03-23T01:31:05;15.10;99.90
3226;DHT22;1625;49.884;8.666;2023-03-23T01:33:32;15.10;99.90
3226;DHT22;1625;49.884;8.666;2023-03-23T01:36:01;15.10;99.90
3226;DHT22;1625;49.884;8.666;2023-03-23T01:38:27;15.20;99.90
3226;DHT22;1625;49.884;8.666;2023-03-23T01:40:53;15.10;99.90
3226;DHT22;1625;49.884;8.666;2023-03-23T01:43:18;15.10;99.90
3226;DHT22;1625;49.884;8.666;2023-03-23T01:45:44;15.10;99.90
3226;DHT22;1625;49.884;8.666;2023-03-23T01:48:23;15.10;99.90
3226;DHT22;1625;49.884;8.666;2023-03-23T01:50:58;15.10;99.90
3226;DHT22;1625;49.884;8.666;2023-03-23T01:53:28;15.10;99.90
3226;DHT22;1625;49.884;8.666;2023-03-23T01:55:57;15.10;99.90
3226;DHT22;1625;49.884;8.666;2023-03-23T01:58:27;15.10;99.90
3226;DHT22;1625;49.884;8.666;2023-03-23T02:00:55;15.10;99.90
3226;DHT22;1625;49.884;8.666;2023-03-23T02:03:22;15.10;99.90
3226;DHT22;1625;49.884;8.666;2023-03-23T02:05:49;15.10;99.90
3226;DHT22;1625;49.884;8.666;2023-03-23T02:08:17;15.10;99.90
3226;DHT22;1625;49.884;8.666;2023-03-23T02:10:43;15.10;99.90
3226;DHT22;1625;49.884;8.666;2023-03-23T02:13:11;15.10;99.90
3226;DHT22;1625;49.884;8.666;2023-03-23T02:26:59;15.00;99.90
3226;DHT22;1625;49.884;8.666;2023-03-23T02:35:17;14.90;99.90
3226;DHT22;1625;49.884;8.666;2023-03-23T02:37:50;14.90;99.90
3226;DHT22;1625;49.884;8.666;2023-03-23T02:40:25;14.90;99.90
3226;DHT22;1625;49.884;8.666;2023-03-23T02:42:54;14.90;99.90
3226;DHT22;1625;49.884;8.666;2023-03-23T02:45:22;14.90;99.90
3226;DHT22;1625;49.884;8.666;2023-03-23T02:47:51;14.90;99.90
3226;DHT22;1625;49.884;8.666;2023-03-23T02:50:20;14.90;99.90
3226;DHT22;1625;49.884;8.666;2023-03-23T02:52:48;14.90;99.90
3226;DHT22;1625;49.884;8.666;2023-03-23T02:55:17;14.90;99.90
3226;DHT22;1625;49.884;8.666;2023-03-23T02:57:43;14.90;99.90
3226;DHT22;1625;49.884;8.666;2023-03-23T03:00:15;14.90;99.90
3226;DHT22;1625;49.884;8.666;2023-03-23T03:02:53;14.90;99.90
3226;DHT22;1625;49.884;8.666;2023-03-23T03:08:00;14.90;99.90
3226;DHT22;1625;49.884;8.666;2023-03-23T03:15:40;14.80;99.90
3226;DHT22;1625;49.884;8.666;2023-03-23T03:18:23;14.80;99.90
3226;DHT22;1625;49.884;8.666;2023-03-23T03:20:53;14.80;99.90
3226;DHT22;1625;49.884;8.666;2023-03-23T03:23:22;14.70;99.90
3226;DHT22;1625;49.884;8.666;2023-03-23T03:25:48;14.70;99.90
3226;DHT22;1625;49.884;8.666;2023-03-23T03:28:18;14.70;99.90
3226;DHT22;1625;49.884;8.666;2023-03-23T03:30:48;14.70;99.90
3226;DHT22;1625;49.884;8.666;2023-03-23T03:33:15;14.70;99.90
3226;DHT22;1625;49.884;8.666;2023-03-23T03:35:43;14.80;99.90
3226;DHT22;1625;49.884;8.666;2023-03-23T03:38:10;14.70;99.90
3226;DHT22;1625;49.884;8.666;2023-03-23T03:40:37;14.80;99.90
3226;DHT22;1625;49.884;8.666;2023-03-23T03:43:03;14.80;99.90
3226;DHT22;1625;49.884;8.666;2023-03-23T03:45:29;14.70;99.90
3226;DHT22;1625;49.884;8.666;2023-03-23T03:47:55;14.80;99.90
3226;DHT22;1625;49.884;8.666;2023-03-23T03:50:21;14.80;99.90
3226;DHT22;1625;49.884;8.666;2023-03-23T03:52:46;14.80;99.90
3226;DHT22;1625;49.884;8.666;2023-03-23T03:55:12;14.80;99.90
3226;DHT22;1625;49.884;8.666;2023-03-23T03:57:38;14.80;99.90
3226;DHT22;1625;49.884;8.666;2023-03-23T04:00:06;14.80;99.90
3226;DHT22;1625;49.884;8.666;2023-03-23T04:02:42;14.80;99.90
3226;DHT22;1625;49.884;8.666;2023-03-23T04:05:08;14.80;99.90
3226;DHT22;1625;49.884;8.666;2023-03-23T04:07:36;14.80;99.90
3226;DHT22;1625;49.884;8.666;2023-03-23T04:10:06;14.70;99.90
3226;DHT22;1625;49.884;8.666;2023-03-23T04:12:32;14.70;99.90
3226;DHT22;1625;49.884;8.666;2023-03-23T04:14:58;14.70;99.90
3226;DHT22;1625;49.884;8.666;2023-03-23T04:17:24;14.70;99.90
3226;DHT22;1625;49.884;8.666;2023-03-23T04:19:52;14.70;99.90
3226;DHT22;1625;49.884;8.666;2023-03-23T04:22:17;14.70;99.90
3226;DHT22;1625;49.884;8.666;2023-03-23T04:24:43;14.70;99.90
3226;DHT22;1625;49.884;8.666;2023-03-23T04:27:09;14.70;99.90
3226;DHT22;1625;49.884;8.666;2023-03-23T04:29:34;14.70;99.90
3226;DHT22;1625;49.884;8.666;2023-03-23T04:32:00;14.70;99.90
3226;DHT22;1625;49.884;8.666;2023-03-23T04:34:27;14.60;99.90
3226;DHT22;1625;49.884;8.666;2023-03-23T04:36:53;14.60;99.90
3226;DHT22;1625;49.884;8.666;2023-03-23T04:39:18;14.60;99.90
3226;DHT22;1625;49.884;8.666;2023-03-23T04:41:44;14.60;99.90
3226;DHT22;1625;49.884;8.666;2023-03-23T04:44:11;14.50;99.90
3226;DHT22;1625;49.884;8.666;2023-03-23T04:46:43;14.60;99.90
3226;DHT22;1625;49.884;8.666;2023-03-23T04:49:10;14.50;99.90
3226;DHT22;1625;49.884;8.666;2023-03-23T04:51:36;14.50;99.90
3226;DHT22;1625;49.884;8.666;2023-03-23T04:54:04;14.50;99.90
3226;DHT22;1625;49.884;8.666;2023-03-23T04:56:29;14.40;99.90
3226;DHT22;1625;49.884;8.666;2023-03-23T04:58:55;14.40;99.90
3226;DHT22;1625;49.884;8.666;2023-03-23T05:01:20;14.40;99.90
3226;DHT22;1625;49.884;8.666;2023-03-23T05:03:46;14.40;99.90
3226;DHT22;1625;49.884;8.666;2023-03-23T05:06:12;14.30;99.90
3226;DHT22;1625;49.884;8.666;2023-03-23T05:08:37;14.30;99.90
3226;DHT22;1625;49.884;8.666;2023-03-23T05:11:05;14.40;99.90
3226;DHT22;1625;49.884;8.666;2023-03-23T05:13:31;14.30;99.90
3226;DHT22;1625;49.884;8.666;2023-03-23T05:15:57;14.30;99.90
3226;DHT22;1625;49.884;8.666;2023-03-23T05:18:23;14.30;99.90
3226;DHT22;1625;49.884;8.666;2023-03-23T05:20:49;14.30;99.90
3226;DHT22;1625;49.884;8.666;2023-03-23T05:23:18;14.20;99.90
3226;DHT22;1625;49.884;8.666;2023-03-23T05:25:55;14.20;99.90
3226;DHT22;1625;49.884;8.666;2023-03-23T05:28:21;14.20;99.90
3226;DHT22;1625;49.884;8.666;2023-03-23T05:30:48;14.20;99.90
3226;DHT22;1625;49.884;8.666;2023-03-23T05:33:13;14.20;99.90
3226;DHT22;1625;49.884;8.666;2023-03-23T05:35:39;14.30;99.90
3226;DHT22;1625;49.884;8.666;2023-03-23T05:38:05;14.20;99.90
3226;DHT22;1625;49.884;8.666;2023-03-23T05:40:30;14.20;99.90
3226;DHT22;1625;49.884;8.666;2023-03-23T05:42:56;14.20;99.90
3226;DHT22;1625;49.884;8.666;2023-03-23T05:45:25;14.10;99.90
3226;DHT22;1625;49.884;8.666;2023-03-23T05:47:51;14.10;99.90
3226;DHT22;1625;49.884;8.666;2023-03-23T05:50:17;14.10;99.90
3226;DHT22;1625;49.884;8.666;2023-03-23T05:52:43;14.10;99.90
3226;DHT22;1625;49.884;8.666;2023-03-23T05:55:09;14.00;99.90
3226;DHT22;1625;49.884;8.666;2023-03-23T05:57:35;14.10;99.90
3226;DHT22;1625;49.884;8.666;2023-03-23T06:00:01;14.00;99.90
3226;DHT22;1625;49.884;8.666;2023-03-23T06:02:38;14.10;99.90
3226;DHT22;1625;49.884;8.666;2023-03-23T06:05:05;14.10;99.90
3226;DHT22;1625;49.884;8.666;2023-03-23T06:07:30;14.10;99.90
3226;DHT22;1625;49.884;8.666;2023-03-23T06:09:56;14.00;99.90
3226;DHT22;1625;49.884;8.666;2023-03-23T06:12:22;14.00;99.90
3226;DHT22;1625;49.884;8.666;2023-03-23T06:14:49;13.90;99.90
3226;DHT22;1625;49.884;8.666;2023-03-23T06:17:15;13.90;99.90
3226;DHT22;1625;49.884;8.666;2023-03-23T06:19:42;13.90;99.90
3226;DHT22;1625;49.884;8.666;2023-03-23T06:22:09;13.80;99.90
3226;DHT22;1625;49.884;8.666;2023-03-23T06:24:34;13.80;99.90
3226;DHT22;1625;49.884;8.666;2023-03-23T06:27:00;13.70;99.90
3226;DHT22;1625;49.884;8.666;2023-03-23T06:29:26;13.70;99.90
3226;DHT22;1625;49.884;8.666;2023-03-23T06:31:56;13.70;99.90
3226;DHT22;1625;49.884;8.666;2023-03-23T06:34:22;13.70;99.90
3226;DHT22;1625;49.884;8.666;2023-03-23T06:36:48;13.70;99.90
3226;DHT22;1625;49.884;8.666;2023-03-23T06:39:13;13.70;99.90
3226;DHT22;1625;49.884;8.666;2023-03-23T06:41:39;13.70;99.90
3226;DHT22;1625;49.884;8.666;2023-03-23T06:44:05;13.70;99.90
3226;DHT22;1625;49.884;8.666;2023-03-23T06:46:31;13.70;99.90
3226;DHT22;1625;49.884;8.666;2023-03-23T06:48:57;13.70;99.90
3226;DHT22;1625;49.884;8.666;2023-03-23T06:51:23;13.60;99.90
3226;DHT22;1625;49.884;8.666;2023-03-23T06:53:49;13.60;99.90
3226;DHT22;1625;49.884;8.666;2023-03-23T06:56:15;13.50;99.90
3226;DHT22;1625;49.884;8.666;2023-03-23T06:58:41;13.50;99.90
3226;DHT22;1625;49.884;8.666;2023-03-23T07:01:11;13.50;99.90
3226;DHT22;1625;49.884;8.666;2023-03-23T07:03:36;13.50;99.90
3226;DHT22;1625;49.884;8.666;2023-03-23T07:06:03;13.50;99.90
3226;DHT22;1625;49.884;8.666;2023-03-23T07:08:29;13.50;99.90
3226;DHT22;1625;49.884;8.666;2023-03-23T07:10:55;13.50;99.90
3226;DHT22;1625;49.884;8.666;2023-03-23T07:13:21;13.60;99.90
3226;DHT22;1625;49.884;8.666;2023-03-23T07:15:47;13.60;99.90
3226;DHT22;1625;49.884;8.666;2023-03-23T07:18:14;13.60;99.90
3226;DHT22;1625;49.884;8.666;2023-03-23T07:20:40;13.60;99.90
3226;DHT22;1625;49.884;8.666;2023-03-23T07:23:06;13.60;99.90
3226;DHT22;1625;49.884;8.666;2023-03-23T07:25:32;13.60;99.90
3226;DHT22;1625;49.884;8.666;2023-03-23T07:27:59;13.60;99.90
3226;DHT22;1625;49.884;8.666;2023-03-23T07:30:25;13.70;99.90
3226;DHT22;1625;49.884;8.666;2023-03-23T07:32:52;13.70;99.90
3226;DHT22;1625;49.884;8.666;2023-03-23T07:35:18;13.70;99.90
3226;DHT22;1625;49.884;8.666;2023-03-23T07:37:44;13.70;99.90
3226;DHT22;1625;49.884;8.666;2023-03-23T07:40:10;13.80;99.90
3226;DHT22;1625;49.884;8.666;2023-03-23T07:42:45;13.70;99.90
3226;DHT22;1625;49.884;8.666;2023-03-23T07:45:12;13.70;99.90
3226;DHT22;1625;49.884;8.666;2023-03-23T07:47:39;13.70;99.90
3226;DHT22;1625;49.884;8.666;2023-03-23T07:50:06;13.70;99.90
3226;DHT22;1625;49.884;8.666;2023-03-23T07:52:33;13.70;99.90
3226;DHT22;1625;49.884;8.666;2023-03-23T07:54:58;13.70;99.90
3226;DHT22;1625;49.884;8.666;2023-03-23T07:57:24;13.80;99.90
3226;DHT22;1625;49.884;8.666;2023-03-23T07:59:49;13.80;99.90
3226;DHT22;1625;49.884;8.666;2023-03-23T08:02:16;13.80;99.90
3226;DHT22;1625;49.884;8.666;2023-03-23T08:04:41;13.80;99.90
3226;DHT22;1625;49.884;8.666;2023-03-23T08:07:07;13.80;99.90
3226;DHT22;1625;49.884;8.666;2023-03-23T08:09:33;13.90;99.90
3226;DHT22;1625;49.884;8.666;2023-03-23T08:11:59;13.90;99.90
3226;DHT22;1625;49.884;8.666;2023-03-23T08:16:58;13.90;99.90
3226;DHT22;1625;49.884;8.666;2023-03-23T08:19:24;13.80;99.90
3226;DHT22;1625;49.884;8.666;2023-03-23T08:21:50;13.80;99.90
3226;DHT22;1625;49.884;8.666;2023-03-23T08:24:16;13.80;99.90
3226;DHT22;1625;49.884;8.666;2023-03-23T08:26:41;13.80;99.90
3226;DHT22;1625;49.884;8.666;2023-03-23T08:29:07;13.70;99.90
3226;DHT22;1625;49.884;8.666;2023-03-23T08:31:34;13.80;99.90
3226;DHT22;1625;49.884;8.666;2023-03-23T08:34:04;13.90;99.90
3226;DHT22;1625;49.884;8.666;2023-03-23T08:36:33;13.80;99.90
3226;DHT22;1625;49.884;8.666;2023-03-23T08:38:59;13.80;99.90
3226;DHT22;1625;49.884;8.666;2023-03-23T08:41:25;13.80;99.90
3226;DHT22;1625;49.884;8.666;2023-03-23T08:43:50;13.70;99.90
3226;DHT22;1625;49.884;8.666;2023-03-23T08:46:17;13.80;99.90
3226;DHT22;1625;49.884;8.666;2023-03-23T08:48:45;13.80;99.90
3226;DHT22;1625;49.884;8.666;2023-03-23T08:51:11;13.80;99.90
3226;DHT22;1625;49.884;8.666;2023-03-23T08:53:37;13.80;99.90
3226;DHT22;1625;49.884;8.666;2023-03-23T08:56:08;13.80;99.90
3226;DHT22;1625;49.884;8.666;2023-03-23T08:58:35;13.90;99.90
3226;DHT22;1625;49.884;8.666;2023-03-23T09:01:01;13.90;99.90
3226;DHT22;1625;49.884;8.666;2023-03-23T09:03:28;13.90;99.90
3226;DHT22;1625;49.884;8.666;2023-03-23T09:05:57;14.00;99.90
3226;DHT22;1625;49.884;8.666;2023-03-23T09:08:23;14.00;99.90
3226;DHT22;1625;49.884;8.666;2023-03-23T09:10:48;14.10;99.90
3226;DHT22;1625;49.884;8.666;2023-03-23T09:13:15;14.20;99.90
3226;DHT22;1625;49.884;8.666;2023-03-23T09:15:40;14.20;99.90
3226;DHT22;1625;49.884;8.666;2023-03-23T09:18:07;14.30;99.90
3226;DHT22;1625;49.884;8.666;2023-03-23T09:20:33;14.30;99.90
3226;DHT22;1625;49.884;8.666;2023-03-23T09:22:58;14.40;99.90
3226;DHT22;1625;49.884;8.666;2023-03-23T09:25:26;14.30;99.90
3226;DHT22;1625;49.884;8.666;2023-03-23T09:27:57;14.30;99.90
3226;DHT22;1625;49.884;8.666;2023-03-23T09:30:28;14.40;99.90
3226;DHT22;1625;49.884;8.666;2023-03-23T09:32:54;14.50;99.90
3226;DHT22;1625;49.884;8.666;2023-03-23T09:35:21;14.50;99.90
3226;DHT22;1625;49.884;8.666;2023-03-23T09:37:48;14.50;99.90
3226;DHT22;1625;49.884;8.666;2023-03-23T09:40:18;14.60;99.90
3226;DHT22;1625;49.884;8.666;2023-03-23T09:45:29;14.80;99.90
3226;DHT22;1625;49.884;8.666;2023-03-23T09:50:32;15.10;99.90
3226;DHT22;1625;49.884;8.666;2023-03-23T09:53:19;15.20;99.90
3226;DHT22;1625;49.884;8.666;2023-03-23T09:55:45;15.30;99.90
3226;DHT22;1625;49.884;8.666;2023-03-23T09:58:34;15.40;99.90
3226;DHT22;1625;49.884;8.666;2023-03-23T10:01:14;15.50;99.90
3226;DHT22;1625;49.884;8.666;2023-03-23T10:03:43;15.70;99.90
3226;DHT22;1625;49.884;8.666;2023-03-23T10:06:12;16.00;99.90
3226;DHT22;1625;49.884;8.666;2023-03-23T10:08:44;16.00;99.90
3226;DHT22;1625;49.884;8.666;2023-03-23T10:16:24;15.80;99.90
3226;DHT22;1625;49.884;8.666;2023-03-23T10:19:14;15.80;99.90
3226;DHT22;1625;49.884;8.666;2023-03-23T10:21:47;15.70;99.90
3226;DHT22;1625;49.884;8.666;2023-03-23T10:24:17;15.60;99.90
3226;DHT22;1625;49.884;8.666;2023-03-23T10:29:46;15.70;99.90
3226;DHT22;1625;49.884;8.666;2023-03-23T10:32:23;15.70;99.90
3226;DHT22;1625;49.884;8.666;2023-03-23T10:34:56;15.60;99.90
3226;DHT22;1625;49.884;8.666;2023-03-23T10:37:31;15.60;99.90
3226;DHT22;1625;49.884;8.666;2023-03-23T10:39:59;15.30;99.90
3226;DHT22;1625;49.884;8.666;2023-03-23T10:42:28;15.20;99.90
3226;DHT22;1625;49.884;8.666;2023-03-23T10:44:56;15.20;99.90
3226;DHT22;1625;49.884;8.666;2023-03-23T10:47:22;15.20;99.90
3226;DHT22;1625;49.884;8.666;2023-03-23T10:49:56;15.30;99.90
3226;DHT22;1625;49.884;8.666;2023-03-23T10:52:33;15.40;99.90
3226;DHT22;1625;49.884;8.666;2023-03-23T10:55:22;15.40;99.90
3226;DHT22;1625;49.884;8.666;2023-03-23T10:58:27;15.30;99.90
3226;DHT22;1625;49.884;8.666;2023-03-23T11:00:51;15.40;99.90
3226;DHT22;1625;49.884;8.666;2023-03-23T11:05:45;15.40;99.90
3226;DHT22;1625;49.884;8.666;2023-03-23T11:08:17;15.40;99.90
3226;DHT22;1625;49.884;8.666;2023-03-23T11:13:17;15.40;99.90
3226;DHT22;1625;49.884;8.666;2023-03-23T11:15:44;15.50;99.90
3226;DHT22;1625;49.884;8.666;2023-03-23T11:18:26;15.50;99.90
3226;DHT22;1625;49.884;8.666;2023-03-23T11:20:56;15.60;99.90
3226;DHT22;1625;49.884;8.666;2023-03-23T11:23:24;15.50;99.90
3226;DHT22;1625;49.884;8.666;2023-03-23T11:28:22;15.50;99.90
3226;DHT22;1625;49.884;8.666;2023-03-23T11:30:53;15.50;99.90
3226;DHT22;1625;49.884;8.666;2023-03-23T11:33:20;15.50;99.90
3226;DHT22;1625;49.884;8.666;2023-03-23T11:35:45;15.60;99.90
3226;DHT22;1625;49.884;8.666;2023-03-23T11:38:18;15.60;99.90
3226;DHT22;1625;49.884;8.666;2023-03-23T11:40:49;15.60;99.90
3226;DHT22;1625;49.884;8.666;2023-03-23T11:43:20;15.50;99.90
3226;DHT22;1625;49.884;8.666;2023-03-23T11:49:02;15.40;99.90
3226;DHT22;1625;49.884;8.666;2023-03-23T11:51:45;15.30;99.90
3226;DHT22;1625;49.884;8.666;2023-03-23T11:54:30;15.30;99.90
3226;DHT22;1625;49.884;8.666;2023-03-23T11:56:57;15.20;99.90
3226;DHT22;1625;49.884;8.666;2023-03-23T11:59:34;15.20;99.90
3226;DHT22;1625;49.884;8.666;2023-03-23T12:02:31;15.10;99.90
3226;DHT22;1625;49.884;8.666;2023-03-23T12:05:30;15.10;99.90
3226;DHT22;1625;49.884;8.666;2023-03-23T12:14:11;15.00;99.90
3226;DHT22;1625;49.884;8.666;2023-03-23T12:25:17;15.30;99.90
3226;DHT22;1625;49.884;8.666;2023-03-23T12:27:53;15.20;99.90
3226;DHT22;1625;49.884;8.666;2023-03-23T12:45:15;15.70;99.90
3226;DHT22;1625;49.884;8.666;2023-03-23T12:48:03;15.90;99.90
3226;DHT22;1625;49.884;8.666;2023-03-23T12:50:35;16.00;99.90
3226;DHT22;1625;49.884;8.666;2023-03-23T12:53:10;16.20;99.90
3226;DHT22;1625;49.884;8.666;2023-03-23T12:55:46;16.30;99.90
3226;DHT22;1625;49.884;8.666;2023-03-23T12:58:26;16.50;99.90
3226;DHT22;1625;49.884;8.666;2023-03-23T13:00:59;16.80;99.90
3226;DHT22;1625;49.884;8.666;2023-03-23T13:03:36;17.00;99.90
3226;DHT22;1625;49.884;8.666;2023-03-23T13:06:20;16.90;99.90
3226;DHT22;1625;49.884;8.666;2023-03-23T13:11:34;17.20;99.90
3226;DHT22;1625;49.884;8.666;2023-03-23T13:17:24;16.80;99.90
3226;DHT22;1625;49.884;8.666;2023-03-23T13:20:04;16.70;99.90
3226;DHT22;1625;49.884;8.666;2023-03-23T13:25:40;16.50;99.90
3226;DHT22;1625;49.884;8.666;2023-03-23T13:28:15;16.30;99.90
3226;DHT22;1625;49.884;8.666;2023-03-23T13:30:41;16.10;99.90
3226;DHT22;1625;49.884;8.666;2023-03-23T13:33:17;16.00;99.90
3226;DHT22;1625;49.884;8.666;2023-03-23T13:35:43;16.10;99.90
3226;DHT22;1625;49.884;8.666;2023-03-23T13:38:27;16.10;99.90
3226;DHT22;1625;49.884;8.666;2023-03-23T13:40:54;16.10;99.90
3226;DHT22;1625;49.884;8.666;2023-03-23T13:43:32;16.10;99.90
3226;DHT22;1625;49.884;8.666;2023-03-23T13:46:09;16.10;99.90
3226;DHT22;1625;49.884;8.666;2023-03-23T13:51:47;15.90;99.90
3226;DHT22;1625;49.884;8.666;2023-03-23T13:54:30;15.90;99.90
3226;DHT22;1625;49.884;8.666;2023-03-23T13:57:03;15.90;99.90
3226;DHT22;1625;49.884;8.666;2023-03-23T13:59:48;15.90;99.90
3226;DHT22;1625;49.884;8.666;2023-03-23T14:04:56;15.90;99.90
3226;DHT22;1625;49.884;8.666;2023-03-23T14:07:22;16.00;99.90
3226;DHT22;1625;49.884;8.666;2023-03-23T14:09:50;16.10;99.90
3226;DHT22;1625;49.884;8.666;2023-03-23T14:12:19;16.20;99.90
3226;DHT22;1625;49.884;8.666;2023-03-23T14:14:54;16.20;99.90
3226;DHT22;1625;49.884;8.666;2023-03-23T14:17:25;16.20;99.90
3226;DHT22;1625;49.884;8.666;2023-03-23T14:19:53;16.20;99.90
3226;DHT22;1625;49.884;8.666;2023-03-23T14:22:31;16.00;99.90
3226;DHT22;1625;49.884;8.666;2023-03-23T14:25:16;16.00;99.90
3226;DHT22;1625;49.884;8.666;2023-03-23T14:27:42;16.00;99.90
3226;DHT22;1625;49.884;8.666;2023-03-23T14:30:17;15.90;99.90
3226;DHT22;1625;49.884;8.666;2023-03-23T14:32:44;15.80;99.90
3226;DHT22;1625;49.884;8.666;2023-03-23T14:35:22;15.60;99.90
3226;DHT22;1625;49.884;8.666;2023-03-23T14:37:49;15.60;99.90
3226;DHT22;1625;49.884;8.666;2023-03-23T14:40:18;15.50;99.90
3226;DHT22;1625;49.884;8.666;2023-03-23T14:42:45;15.40;99.90
3226;DHT22;1625;49.884;8.666;2023-03-23T14:45:15;15.40;99.90
3226;DHT22;1625;49.884;8.666;2023-03-23T14:47:47;15.30;99.90
3226;DHT22;1625;49.884;8.666;2023-03-23T14:50:37;15.30;99.90
3226;DHT22;1625;49.884;8.666;2023-03-23T14:53:23;15.30;99.90
3226;DHT22;1625;49.884;8.666;2023-03-23T14:55:51;15.40;99.90
3226;DHT22;1625;49.884;8.666;2023-03-23T14:58:19;15.30;99.90
3226;DHT22;1625;49.884;8.666;2023-03-23T15:00:59;15.30;99.90
3226;DHT22;1625;49.884;8.666;2023-03-23T15:03:25;15.40;99.90
3226;DHT22;1625;49.884;8.666;2023-03-23T15:05:56;15.30;99.90
3226;DHT22;1625;49.884;8.666;2023-03-23T15:08:31;15.30;99.90
3226;DHT22;1625;49.884;8.666;2023-03-23T15:13:44;15.30;99.90
3226;DHT22;1625;49.884;8.666;2023-03-23T15:16:19;15.30;99.90
3226;DHT22;1625;49.884;8.666;2023-03-23T15:18:50;15.30;99.90
3226;DHT22;1625;49.884;8.666;2023-03-23T15:21:33;15.30;99.90
3226;DHT22;1625;49.884;8.666;2023-03-23T15:24:00;15.40;99.90
3226;DHT22;1625;49.884;8.666;2023-03-23T15:31:54;15.40;99.90
3226;DHT22;1625;49.884;8.666;2023-03-23T15:34:32;15.40;99.90
3226;DHT22;1625;49.884;8.666;2023-03-23T15:37:05;15.40;99.90
3226;DHT22;1625;49.884;8.666;2023-03-23T15:39:32;15.30;99.90
3226;DHT22;1625;49.884;8.666;2023-03-23T15:41:59;15.30;99.90
3226;DHT22;1625;49.884;8.666;2023-03-23T15:44:31;15.30;99.90
3226;DHT22;1625;49.884;8.666;2023-03-23T15:47:17;15.30;99.90
3226;DHT22;1625;49.884;8.666;2023-03-23T15:49:44;15.30;99.90
3226;DHT22;1625;49.884;8.666;2023-03-23T15:52:11;15.30;99.90
3226;DHT22;1625;49.884;8.666;2023-03-23T15:54:37;15.20;99.90
3226;DHT22;1625;49.884;8.666;2023-03-23T15:57:03;15.30;99.90
3226;DHT22;1625;49.884;8.666;2023-03-23T15:59:29;15.20;99.90
3226;DHT22;1625;49.884;8.666;2023-03-23T16:01:55;15.20;99.90
3226;DHT22;1625;49.884;8.666;2023-03-23T16:04:21;15.20;99.90
3226;DHT22;1625;49.884;8.666;2023-03-23T16:06:47;15.20;99.90
3226;DHT22;1625;49.884;8.666;2023-03-23T16:09:18;15.20;99.90
3226;DHT22;1625;49.884;8.666;2023-03-23T16:11:43;15.30;99.90
3226;DHT22;1625;49.884;8.666;2023-03-23T16:14:09;15.30;99.90
3226;DHT22;1625;49.884;8.666;2023-03-23T16:16:42;15.30;99.90
3226;DHT22;1625;49.884;8.666;2023-03-23T16:19:11;15.30;99.90
3226;DHT22;1625;49.884;8.666;2023-03-23T16:21:37;15.30;99.90
3226;DHT22;1625;49.884;8.666;2023-03-23T16:24:03;15.40;99.90
3226;DHT22;1625;49.884;8.666;2023-03-23T16:26:28;15.30;99.90
3226;DHT22;1625;49.884;8.666;2023-03-23T16:28:54;15.30;99.90
3226;DHT22;1625;49.884;8.666;2023-03-23T16:31:20;15.20;99.90
3226;DHT22;1625;49.884;8.666;2023-03-23T16:33:45;15.10;99.90
3226;DHT22;1625;49.884;8.666;2023-03-23T16:36:14;15.10;99.90
3226;DHT22;1625;49.884;8.666;2023-03-23T16:38:40;15.10;99.90
3226;DHT22;1625;49.884;8.666;2023-03-23T16:41:06;15.10;99.90
3226;DHT22;1625;49.884;8.666;2023-03-23T16:43:32;15.10;99.90
3226;DHT22;1625;49.884;8.666;2023-03-23T16:45:58;15.10;99.90
3226;DHT22;1625;49.884;8.666;2023-03-23T16:48:23;15.00;99.90
3226;DHT22;1625;49.884;8.666;2023-03-23T16:50:51;15.00;99.90
3226;DHT22;1625;49.884;8.666;2023-03-23T16:53:17;15.00;99.90
3226;DHT22;1625;49.884;8.666;2023-03-23T16:55:43;15.00;99.90
3226;DHT22;1625;49.884;8.666;2023-03-23T16:58:13;14.90;99.90
3226;DHT22;1625;49.884;8.666;2023-03-23T17:00:38;14.90;99.90
3226;DHT22;1625;49.884;8.666;2023-03-23T17:03:05;14.80;99.90
3226;DHT22;1625;49.884;8.666;2023-03-23T17:05:31;14.80;99.90
3226;DHT22;1625;49.884;8.666;2023-03-23T17:07:56;14.80;99.90
3226;DHT22;1625;49.884;8.666;2023-03-23T17:10:24;14.70;99.90
3226;DHT22;1625;49.884;8.666;2023-03-23T17:12:51;14.70;99.90
3226;DHT22;1625;49.884;8.666;2023-03-23T17:15:17;14.70;99.90
3226;DHT22;1625;49.884;8.666;2023-03-23T17:17:43;14.70;99.90
3226;DHT22;1625;49.884;8.666;2023-03-23T17:20:09;14.60;99.90
3226;DHT22;1625;49.884;8.666;2023-03-23T17:22:36;14.60;99.90
3226;DHT22;1625;49.884;8.666;2023-03-23T17:25:03;14.60;99.90
3226;DHT22;1625;49.884;8.666;2023-03-23T17:27:30;14.60;99.90
3226;DHT22;1625;49.884;8.666;2023-03-23T17:29:55;14.50;99.90
3226;DHT22;1625;49.884;8.666;2023-03-23T17:32:21;14.50;99.90
3226;DHT22;1625;49.884;8.666;2023-03-23T17:34:48;14.50;99.90
3226;DHT22;1625;49.884;8.666;2023-03-23T17:37:14;14.50;99.90
3226;DHT22;1625;49.884;8.666;2023-03-23T17:39:40;14.40;99.90
3226;DHT22;1625;49.884;8.666;2023-03-23T17:42:05;14.40;99.90
3226;DHT22;1625;49.884;8.666;2023-03-23T17:44:31;14.40;99.90
3226;DHT22;1625;49.884;8.666;2023-03-23T17:46:57;14.40;99.90
3226;DHT22;1625;49.884;8.666;2023-03-23T17:49:24;14.30;99.90
3226;DHT22;1625;49.884;8.666;2023-03-23T17:51:49;14.30;99.90
3226;DHT22;1625;49.884;8.666;2023-03-23T17:54:15;14.30;99.90
3226;DHT22;1625;49.884;8.666;2023-03-23T17:56:40;14.30;99.90